sensor_id;sensor_type;location;lat;lon;timestamp;P1;durP1;ratioP1;P2;durP2;ratioP2
68457;SDS011;65384;52.016;5.428;2023-06-14T00:01:38;5.72;;;3.00;;
68457;SDS011;65384;52.016;5.428;2023-06-14T00:04:03;6.68;;;3.08;;
68457;SDS011;65384;52.016;5.428;2023-06-14T00:06:30;8.18;;;3.10;;
68457;SDS011;65384;52.016;5.428;2023-06-14T00:08:56;7.63;;;2.97;;
68457;SDS011;65384;52.016;5.428;2023-06-14T00:11:21;6.70;;;2.88;;
68457;SDS011;65384;52.016;5.428;2023-06-14T00:13:47;6.75;;;3.00;;
68457;SDS011;65384;52.016;5.428;2023-06-14T00:16:12;6.90;;;3.10;;
68457;SDS011;65384;52.016;5.428;2023-06-14T00:18:38;7.75;;;2.78;;
68457;SDS011;65384;52.016;5.428;2023-06-14T00:21:03;5.05;;;2.90;;
68457;SDS011;65384;52.016;5.428;2023-06-14T00:23:29;6.57;;;3.30;;
68457;SDS011;65384;52.016;5.428;2023-06-14T00:25:55;5.68;;;2.85;;
68457;SDS011;65384;52.016;5.428;2023-06-14T00:28:20;7.32;;;3.15;;
68457;SDS011;65384;52.016;5.428;2023-06-14T00:30:46;8.60;;;3.08;;
68457;SDS011;65384;52.016;5.428;2023-06-14T00:33:12;5.05;;;2.88;;
68457;SDS011;65384;52.016;5.428;2023-06-14T00:35:37;5.45;;;2.75;;
68457;SDS011;65384;52.016;5.428;2023-06-14T00:38:03;6.68;;;2.72;;
68457;SDS011;65384;52.016;5.428;2023-06-14T00:40:28;7.65;;;3.10;;
68457;SDS011;65384;52.016;5.428;2023-06-14T00:42:54;5.20;;;2.90;;
68457;SDS011;65384;52.016;5.428;2023-06-14T00:45:19;7.43;;;3.10;;
68457;SDS011;65384;52.016;5.428;2023-06-14T00:47:45;9.85;;;3.15;;
68457;SDS011;65384;52.016;5.428;2023-06-14T00:50:11;7.38;;;2.90;;
68457;SDS011;65384;52.016;5.428;2023-06-14T00:52:38;8.98;;;2.80;;
68457;SDS011;65384;52.016;5.428;2023-06-14T00:55:04;8.20;;;2.92;;
68457;SDS011;65384;52.016;5.428;2023-06-14T00:57:29;8.73;;;3.20;;
68457;SDS011;65384;52.016;5.428;2023-06-14T00:59:55;8.05;;;3.00;;
68457;SDS011;65384;52.016;5.428;2023-06-14T01:02:21;5.18;;;2.95;;
68457;SDS011;65384;52.016;5.428;2023-06-14T01:04:47;14.10;;;3.30;;
68457;SDS011;65384;52.016;5.428;2023-06-14T01:15:24;5.75;;;3.08;;
68457;SDS011;65384;52.016;5.428;2023-06-14T01:17:50;8.32;;;2.92;;
68457;SDS011;65384;52.016;5.428;2023-06-14T01:20:19;7.30;;;2.70;;
68457;SDS011;65384;52.016;5.428;2023-06-14T01:22:53;8.55;;;3.00;;
68457;SDS011;65384;52.016;5.428;2023-06-14T01:25:19;6.15;;;3.00;;
68457;SDS011;65384;52.016;5.428;2023-06-14T01:27:47;5.72;;;2.72;;
68457;SDS011;65384;52.016;5.428;2023-06-14T01:30:14;6.78;;;3.08;;
68457;SDS011;65384;52.016;5.428;2023-06-14T01:32:40;7.72;;;3.00;;
68457;SDS011;65384;52.016;5.428;2023-06-14T01:35:05;5.88;;;2.85;;
68457;SDS011;65384;52.016;5.428;2023-06-14T01:37:31;7.25;;;2.92;;
68457;SDS011;65384;52.016;5.428;2023-06-14T01:39:56;5.70;;;2.80;;
68457;SDS011;65384;52.016;5.428;2023-06-14T01:42:22;6.13;;;3.10;;
68457;SDS011;65384;52.016;5.428;2023-06-14T01:44:48;7.20;;;2.80;;
68457;SDS011;65384;52.016;5.428;2023-06-14T01:47:14;7.88;;;2.97;;
68457;SDS011;65384;52.016;5.428;2023-06-14T01:49:40;8.32;;;3.00;;
68457;SDS011;65384;52.016;5.428;2023-06-14T01:52:05;7.32;;;3.63;;
68457;SDS011;65384;52.016;5.428;2023-06-14T01:54:34;9.75;;;2.90;;
68457;SDS011;65384;52.016;5.428;2023-06-14T01:57:02;11.70;;;2.97;;
68457;SDS011;65384;52.016;5.428;2023-06-14T01:59:28;4.50;;;2.75;;
68457;SDS011;65384;52.016;5.428;2023-06-14T02:01:53;8.52;;;2.88;;
68457;SDS011;65384;52.016;5.428;2023-06-14T02:04:19;4.80;;;2.85;;
68457;SDS011;65384;52.016;5.428;2023-06-14T02:06:44;6.05;;;2.70;;
68457;SDS011;65384;52.016;5.428;2023-06-14T02:09:10;7.88;;;3.08;;
68457;SDS011;65384;52.016;5.428;2023-06-14T02:11:35;9.73;;;3.08;;
68457;SDS011;65384;52.016;5.428;2023-06-14T02:14:00;10.80;;;3.22;;
68457;SDS011;65384;52.016;5.428;2023-06-14T02:16:26;7.35;;;3.13;;
68457;SDS011;65384;52.016;5.428;2023-06-14T02:18:53;6.38;;;3.00;;
68457;SDS011;65384;52.016;5.428;2023-06-14T02:21:18;6.07;;;3.05;;
68457;SDS011;65384;52.016;5.428;2023-06-14T02:23:44;9.18;;;3.40;;
68457;SDS011;65384;52.016;5.428;2023-06-14T02:26:10;6.05;;;2.70;;
68457;SDS011;65384;52.016;5.428;2023-06-14T02:28:35;10.57;;;3.22;;
68457;SDS011;65384;52.016;5.428;2023-06-14T02:31:00;5.70;;;3.13;;
68457;SDS011;65384;52.016;5.428;2023-06-14T02:33:26;9.48;;;3.00;;
68457;SDS011;65384;52.016;5.428;2023-06-14T02:35:51;7.18;;;3.10;;
68457;SDS011;65384;52.016;5.428;2023-06-14T02:38:17;13.73;;;3.38;;
68457;SDS011;65384;52.016;5.428;2023-06-14T02:40:43;8.40;;;3.13;;
68457;SDS011;65384;52.016;5.428;2023-06-14T02:43:08;7.95;;;3.15;;
68457;SDS011;65384;52.016;5.428;2023-06-14T02:45:34;12.88;;;3.30;;
68457;SDS011;65384;52.016;5.428;2023-06-14T02:47:59;9.68;;;3.30;;
68457;SDS011;65384;52.016;5.428;2023-06-14T02:50:25;6.65;;;3.30;;
68457;SDS011;65384;52.016;5.428;2023-06-14T02:52:50;9.68;;;3.10;;
68457;SDS011;65384;52.016;5.428;2023-06-14T02:55:17;7.47;;;3.47;;
68457;SDS011;65384;52.016;5.428;2023-06-14T02:57:42;7.88;;;3.60;;
68457;SDS011;65384;52.016;5.428;2023-06-14T03:00:08;6.22;;;3.78;;
68457;SDS011;65384;52.016;5.428;2023-06-14T03:02:38;7.18;;;3.70;;
68457;SDS011;65384;52.016;5.428;2023-06-14T03:05:03;6.38;;;3.15;;
68457;SDS011;65384;52.016;5.428;2023-06-14T03:07:31;11.18;;;3.85;;
68457;SDS011;65384;52.016;5.428;2023-06-14T03:09:57;7.32;;;3.35;;
68457;SDS011;65384;52.016;5.428;2023-06-14T03:12:23;5.45;;;3.40;;
68457;SDS011;65384;52.016;5.428;2023-06-14T03:14:48;5.22;;;3.42;;
68457;SDS011;65384;52.016;5.428;2023-06-14T03:17:15;15.52;;;3.80;;
68457;SDS011;65384;52.016;5.428;2023-06-14T03:19:42;10.15;;;3.35;;
68457;SDS011;65384;52.016;5.428;2023-06-14T03:22:07;10.43;;;3.38;;
68457;SDS011;65384;52.016;5.428;2023-06-14T03:24:33;8.30;;;3.70;;
68457;SDS011;65384;52.016;5.428;2023-06-14T03:27:01;10.70;;;3.53;;
68457;SDS011;65384;52.016;5.428;2023-06-14T03:29:27;11.80;;;3.42;;
68457;SDS011;65384;52.016;5.428;2023-06-14T03:31:59;6.80;;;3.47;;
68457;SDS011;65384;52.016;5.428;2023-06-14T03:34:26;8.45;;;3.53;;
68457;SDS011;65384;52.016;5.428;2023-06-14T03:36:51;9.00;;;3.70;;
68457;SDS011;65384;52.016;5.428;2023-06-14T03:39:17;7.97;;;3.58;;
68457;SDS011;65384;52.016;5.428;2023-06-14T03:41:43;7.40;;;3.72;;
68457;SDS011;65384;52.016;5.428;2023-06-14T03:44:08;9.63;;;3.75;;
68457;SDS011;65384;52.016;5.428;2023-06-14T03:46:33;8.75;;;3.72;;
68457;SDS011;65384;52.016;5.428;2023-06-14T03:48:59;6.57;;;3.35;;
68457;SDS011;65384;52.016;5.428;2023-06-14T03:51:25;6.38;;;3.22;;
68457;SDS011;65384;52.016;5.428;2023-06-14T03:53:51;8.82;;;3.45;;
68457;SDS011;65384;52.016;5.428;2023-06-14T03:56:16;13.32;;;3.28;;
68457;SDS011;65384;52.016;5.428;2023-06-14T03:58:41;8.35;;;3.65;;
68457;SDS011;65384;52.016;5.428;2023-06-14T04:01:07;9.95;;;3.53;;
68457;SDS011;65384;52.016;5.428;2023-06-14T04:03:32;7.10;;;3.33;;
68457;SDS011;65384;52.016;5.428;2023-06-14T04:05:58;9.55;;;3.60;;
68457;SDS011;65384;52.016;5.428;2023-06-14T04:08:24;8.48;;;3.60;;
68457;SDS011;65384;52.016;5.428;2023-06-14T04:10:50;8.48;;;3.65;;
68457;SDS011;65384;52.016;5.428;2023-06-14T04:13:15;6.53;;;3.58;;
68457;SDS011;65384;52.016;5.428;2023-06-14T04:15:42;8.88;;;3.63;;
68457;SDS011;65384;52.016;5.428;2023-06-14T04:18:08;9.77;;;3.65;;
68457;SDS011;65384;52.016;5.428;2023-06-14T04:20:34;10.07;;;3.70;;
68457;SDS011;65384;52.016;5.428;2023-06-14T04:23:10;5.32;;;3.47;;
68457;SDS011;65384;52.016;5.428;2023-06-14T04:25:37;5.90;;;3.70;;
68457;SDS011;65384;52.016;5.428;2023-06-14T04:28:03;6.82;;;3.67;;
68457;SDS011;65384;52.016;5.428;2023-06-14T04:30:28;13.38;;;3.47;;
68457;SDS011;65384;52.016;5.428;2023-06-14T04:32:56;7.18;;;3.80;;
68457;SDS011;65384;52.016;5.428;2023-06-14T04:35:22;6.68;;;3.65;;
68457;SDS011;65384;52.016;5.428;2023-06-14T04:37:49;8.23;;;3.85;;
68457;SDS011;65384;52.016;5.428;2023-06-14T04:40:14;9.38;;;3.60;;
68457;SDS011;65384;52.016;5.428;2023-06-14T04:42:40;6.20;;;3.38;;
68457;SDS011;65384;52.016;5.428;2023-06-14T04:45:06;10.88;;;4.53;;
68457;SDS011;65384;52.016;5.428;2023-06-14T04:47:32;10.02;;;3.55;;
68457;SDS011;65384;52.016;5.428;2023-06-14T04:49:59;8.15;;;3.58;;
68457;SDS011;65384;52.016;5.428;2023-06-14T04:52:25;8.15;;;4.05;;
68457;SDS011;65384;52.016;5.428;2023-06-14T04:54:51;7.35;;;3.60;;
68457;SDS011;65384;52.016;5.428;2023-06-14T04:57:19;9.00;;;4.00;;
68457;SDS011;65384;52.016;5.428;2023-06-14T04:59:47;6.82;;;3.45;;
68457;SDS011;65384;52.016;5.428;2023-06-14T05:02:13;8.93;;;3.35;;
68457;SDS011;65384;52.016;5.428;2023-06-14T05:04:39;9.13;;;3.70;;
68457;SDS011;65384;52.016;5.428;2023-06-14T05:07:08;7.85;;;3.65;;
68457;SDS011;65384;52.016;5.428;2023-06-14T05:09:34;9.57;;;3.35;;
68457;SDS011;65384;52.016;5.428;2023-06-14T05:12:00;7.70;;;3.63;;
68457;SDS011;65384;52.016;5.428;2023-06-14T05:14:25;7.50;;;3.50;;
68457;SDS011;65384;52.016;5.428;2023-06-14T05:16:51;9.55;;;3.63;;
68457;SDS011;65384;52.016;5.428;2023-06-14T05:19:17;9.48;;;3.50;;
68457;SDS011;65384;52.016;5.428;2023-06-14T05:21:43;6.40;;;3.55;;
68457;SDS011;65384;52.016;5.428;2023-06-14T05:24:09;8.38;;;3.60;;
68457;SDS011;65384;52.016;5.428;2023-06-14T05:26:34;15.93;;;3.78;;
68457;SDS011;65384;52.016;5.428;2023-06-14T05:29:00;11.18;;;3.80;;
68457;SDS011;65384;52.016;5.428;2023-06-14T05:31:26;6.70;;;3.78;;
68457;SDS011;65384;52.016;5.428;2023-06-14T05:33:53;8.25;;;3.47;;
68457;SDS011;65384;52.016;5.428;2023-06-14T05:36:19;9.13;;;3.22;;
68457;SDS011;65384;52.016;5.428;2023-06-14T05:38:46;6.82;;;3.47;;
68457;SDS011;65384;52.016;5.428;2023-06-14T05:41:11;6.47;;;3.20;;
68457;SDS011;65384;52.016;5.428;2023-06-14T05:43:37;8.70;;;3.97;;
68457;SDS011;65384;52.016;5.428;2023-06-14T05:46:02;8.00;;;3.05;;
68457;SDS011;65384;52.016;5.428;2023-06-14T05:48:28;6.88;;;3.10;;
68457;SDS011;65384;52.016;5.428;2023-06-14T05:50:53;7.57;;;3.10;;
68457;SDS011;65384;52.016;5.428;2023-06-14T05:53:19;8.85;;;2.92;;
68457;SDS011;65384;52.016;5.428;2023-06-14T05:55:44;9.38;;;2.80;;
68457;SDS011;65384;52.016;5.428;2023-06-14T05:58:11;4.85;;;2.90;;
68457;SDS011;65384;52.016;5.428;2023-06-14T06:00:38;11.57;;;2.88;;
68457;SDS011;65384;52.016;5.428;2023-06-14T06:03:04;16.52;;;3.22;;
68457;SDS011;65384;52.016;5.428;2023-06-14T06:05:29;6.53;;;2.90;;
68457;SDS011;65384;52.016;5.428;2023-06-14T06:07:55;8.20;;;2.80;;
68457;SDS011;65384;52.016;5.428;2023-06-14T06:10:21;5.85;;;2.80;;
68457;SDS011;65384;52.016;5.428;2023-06-14T06:12:46;5.60;;;2.70;;
68457;SDS011;65384;52.016;5.428;2023-06-14T06:15:13;5.13;;;2.58;;
68457;SDS011;65384;52.016;5.428;2023-06-14T06:17:39;6.07;;;2.60;;
68457;SDS011;65384;52.016;5.428;2023-06-14T06:20:05;8.10;;;2.70;;
68457;SDS011;65384;52.016;5.428;2023-06-14T06:22:33;5.18;;;2.97;;
68457;SDS011;65384;52.016;5.428;2023-06-14T06:24:58;5.75;;;2.53;;
68457;SDS011;65384;52.016;5.428;2023-06-14T06:27:24;8.18;;;2.92;;
68457;SDS011;65384;52.016;5.428;2023-06-14T06:29:49;5.90;;;2.90;;
68457;SDS011;65384;52.016;5.428;2023-06-14T06:32:16;4.85;;;2.70;;
68457;SDS011;65384;52.016;5.428;2023-06-14T06:34:42;4.70;;;2.50;;
68457;SDS011;65384;52.016;5.428;2023-06-14T06:37:07;5.22;;;2.60;;
68457;SDS011;65384;52.016;5.428;2023-06-14T06:39:32;8.52;;;2.83;;
68457;SDS011;65384;52.016;5.428;2023-06-14T06:41:58;5.70;;;2.60;;
68457;SDS011;65384;52.016;5.428;2023-06-14T06:44:23;6.03;;;2.63;;
68457;SDS011;65384;52.016;5.428;2023-06-14T06:46:48;5.40;;;2.67;;
68457;SDS011;65384;52.016;5.428;2023-06-14T06:49:14;12.15;;;2.75;;
68457;SDS011;65384;52.016;5.428;2023-06-14T06:51:42;7.10;;;2.83;;
68457;SDS011;65384;52.016;5.428;2023-06-14T06:54:08;6.97;;;2.95;;
68457;SDS011;65384;52.016;5.428;2023-06-14T06:56:34;8.93;;;3.03;;
68457;SDS011;65384;52.016;5.428;2023-06-14T06:59:00;6.32;;;2.92;;
68457;SDS011;65384;52.016;5.428;2023-06-14T07:01:25;5.13;;;2.90;;
68457;SDS011;65384;52.016;5.428;2023-06-14T07:03:53;9.02;;;2.70;;
68457;SDS011;65384;52.016;5.428;2023-06-14T07:06:19;6.50;;;2.50;;
68457;SDS011;65384;52.016;5.428;2023-06-14T07:08:46;7.53;;;3.00;;
68457;SDS011;65384;52.016;5.428;2023-06-14T07:11:13;7.95;;;3.15;;
68457;SDS011;65384;52.016;5.428;2023-06-14T07:13:39;6.53;;;3.20;;
68457;SDS011;65384;52.016;5.428;2023-06-14T07:16:04;6.10;;;2.70;;
68457;SDS011;65384;52.016;5.428;2023-06-14T07:18:30;7.53;;;2.80;;
68457;SDS011;65384;52.016;5.428;2023-06-14T07:20:56;6.38;;;2.60;;
68457;SDS011;65384;52.016;5.428;2023-06-14T07:23:22;6.57;;;2.70;;
68457;SDS011;65384;52.016;5.428;2023-06-14T07:25:48;4.30;;;2.70;;
68457;SDS011;65384;52.016;5.428;2023-06-14T07:28:13;6.07;;;2.38;;
68457;SDS011;65384;52.016;5.428;2023-06-14T07:30:39;5.93;;;2.53;;
68457;SDS011;65384;52.016;5.428;2023-06-14T07:33:04;4.18;;;2.50;;
68457;SDS011;65384;52.016;5.428;2023-06-14T07:35:30;6.03;;;2.47;;
68457;SDS011;65384;52.016;5.428;2023-06-14T07:37:56;5.28;;;2.60;;
68457;SDS011;65384;52.016;5.428;2023-06-14T07:40:21;6.00;;;2.47;;
68457;SDS011;65384;52.016;5.428;2023-06-14T07:42:47;3.90;;;2.30;;
68457;SDS011;65384;52.016;5.428;2023-06-14T07:45:13;3.50;;;2.50;;
68457;SDS011;65384;52.016;5.428;2023-06-14T07:47:39;5.55;;;2.50;;
68457;SDS011;65384;52.016;5.428;2023-06-14T07:50:04;4.18;;;2.40;;
68457;SDS011;65384;52.016;5.428;2023-06-14T07:52:30;6.63;;;2.22;;
68457;SDS011;65384;52.016;5.428;2023-06-14T07:54:56;4.28;;;2.50;;
68457;SDS011;65384;52.016;5.428;2023-06-14T07:57:21;4.13;;;2.10;;
68457;SDS011;65384;52.016;5.428;2023-06-14T07:59:47;4.90;;;2.20;;
68457;SDS011;65384;52.016;5.428;2023-06-14T08:02:12;4.93;;;1.90;;
68457;SDS011;65384;52.016;5.428;2023-06-14T08:04:38;4.22;;;2.03;;
68457;SDS011;65384;52.016;5.428;2023-06-14T08:07:03;3.90;;;1.88;;
68457;SDS011;65384;52.016;5.428;2023-06-14T08:09:29;5.05;;;2.10;;
68457;SDS011;65384;52.016;5.428;2023-06-14T08:11:55;7.57;;;1.92;;
68457;SDS011;65384;52.016;5.428;2023-06-14T08:14:20;3.55;;;1.80;;
68457;SDS011;65384;52.016;5.428;2023-06-14T08:16:46;5.72;;;1.83;;
68457;SDS011;65384;52.016;5.428;2023-06-14T08:19:11;2.88;;;1.67;;
68457;SDS011;65384;52.016;5.428;2023-06-14T08:21:37;2.83;;;1.88;;
68457;SDS011;65384;52.016;5.428;2023-06-14T08:24:02;3.53;;;1.73;;
68457;SDS011;65384;52.016;5.428;2023-06-14T08:26:28;3.35;;;1.67;;
68457;SDS011;65384;52.016;5.428;2023-06-14T08:28:55;2.63;;;1.77;;
68457;SDS011;65384;52.016;5.428;2023-06-14T08:31:21;2.95;;;1.50;;
68457;SDS011;65384;52.016;5.428;2023-06-14T08:33:46;2.67;;;1.55;;
68457;SDS011;65384;52.016;5.428;2023-06-14T08:36:12;4.25;;;1.50;;
68457;SDS011;65384;52.016;5.428;2023-06-14T08:38:38;3.42;;;1.70;;
68457;SDS011;65384;52.016;5.428;2023-06-14T08:41:04;2.97;;;1.60;;
68457;SDS011;65384;52.016;5.428;2023-06-14T08:43:33;4.82;;;1.95;;
68457;SDS011;65384;52.016;5.428;2023-06-14T08:46:00;3.15;;;1.70;;
68457;SDS011;65384;52.016;5.428;2023-06-14T08:48:27;3.85;;;1.80;;
68457;SDS011;65384;52.016;5.428;2023-06-14T08:50:54;4.43;;;1.70;;
68457;SDS011;65384;52.016;5.428;2023-06-14T08:53:27;1.80;;;1.48;;
68457;SDS011;65384;52.016;5.428;2023-06-14T08:55:56;3.13;;;1.80;;
68457;SDS011;65384;52.016;5.428;2023-06-14T08:58:25;6.97;;;1.95;;
68457;SDS011;65384;52.016;5.428;2023-06-14T09:00:50;2.78;;;1.65;;
68457;SDS011;65384;52.016;5.428;2023-06-14T09:03:17;3.67;;;1.58;;
68457;SDS011;65384;52.016;5.428;2023-06-14T09:05:45;2.00;;;1.60;;
68457;SDS011;65384;52.016;5.428;2023-06-14T09:08:12;2.80;;;1.48;;
68457;SDS011;65384;52.016;5.428;2023-06-14T09:10:37;4.10;;;1.50;;
68457;SDS011;65384;52.016;5.428;2023-06-14T09:13:05;3.08;;;1.55;;
68457;SDS011;65384;52.016;5.428;2023-06-14T09:15:31;2.95;;;1.60;;
68457;SDS011;65384;52.016;5.428;2023-06-14T09:17:57;3.83;;;1.40;;
68457;SDS011;65384;52.016;5.428;2023-06-14T09:20:23;4.68;;;1.45;;
68457;SDS011;65384;52.016;5.428;2023-06-14T09:22:49;2.72;;;1.48;;
68457;SDS011;65384;52.016;5.428;2023-06-14T09:25:14;2.80;;;1.48;;
68457;SDS011;65384;52.016;5.428;2023-06-14T09:27:40;5.22;;;1.75;;
68457;SDS011;65384;52.016;5.428;2023-06-14T09:30:08;6.10;;;1.60;;
68457;SDS011;65384;52.016;5.428;2023-06-14T09:32:38;2.88;;;1.60;;
68457;SDS011;65384;52.016;5.428;2023-06-14T09:35:06;2.55;;;1.48;;
68457;SDS011;65384;52.016;5.428;2023-06-14T09:37:33;2.83;;;1.50;;
68457;SDS011;65384;52.016;5.428;2023-06-14T09:39:59;1.83;;;1.45;;
68457;SDS011;65384;52.016;5.428;2023-06-14T09:42:25;2.65;;;1.30;;
68457;SDS011;65384;52.016;5.428;2023-06-14T09:44:55;3.78;;;1.60;;
68457;SDS011;65384;52.016;5.428;2023-06-14T09:47:21;2.85;;;1.85;;
68457;SDS011;65384;52.016;5.428;2023-06-14T09:49:48;4.57;;;1.50;;
68457;SDS011;65384;52.016;5.428;2023-06-14T09:52:17;5.50;;;1.52;;
68457;SDS011;65384;52.016;5.428;2023-06-14T09:54:44;1.63;;;1.30;;
68457;SDS011;65384;52.016;5.428;2023-06-14T09:57:21;1.85;;;1.30;;
68457;SDS011;65384;52.016;5.428;2023-06-14T09:59:47;2.92;;;1.70;;
68457;SDS011;65384;52.016;5.428;2023-06-14T10:02:18;2.15;;;1.58;;
68457;SDS011;65384;52.016;5.428;2023-06-14T10:04:50;5.82;;;1.40;;
68457;SDS011;65384;52.016;5.428;2023-06-14T10:07:22;3.45;;;1.40;;
68457;SDS011;65384;52.016;5.428;2023-06-14T10:09:48;4.85;;;1.60;;
68457;SDS011;65384;52.016;5.428;2023-06-14T10:12:17;4.03;;;1.50;;
68457;SDS011;65384;52.016;5.428;2023-06-14T10:14:49;5.65;;;1.50;;
68457;SDS011;65384;52.016;5.428;2023-06-14T10:19:52;4.10;;;1.45;;
68457;SDS011;65384;52.016;5.428;2023-06-14T10:22:34;2.65;;;1.40;;
68457;SDS011;65384;52.016;5.428;2023-06-14T10:25:03;3.65;;;1.50;;
68457;SDS011;65384;52.016;5.428;2023-06-14T10:27:37;4.75;;;1.33;;
68457;SDS011;65384;52.016;5.428;2023-06-14T10:30:03;7.72;;;1.40;;
68457;SDS011;65384;52.016;5.428;2023-06-14T10:32:30;2.15;;;1.40;;
68457;SDS011;65384;52.016;5.428;2023-06-14T10:35:01;5.47;;;1.58;;
68457;SDS011;65384;52.016;5.428;2023-06-14T10:37:31;1.98;;;1.55;;
68457;SDS011;65384;52.016;5.428;2023-06-14T10:39:56;3.25;;;1.33;;
68457;SDS011;65384;52.016;5.428;2023-06-14T10:42:22;4.85;;;1.70;;
68457;SDS011;65384;52.016;5.428;2023-06-14T10:44:53;4.03;;;1.58;;
